createdAt,value
2022-10-13T00:00:55.520Z,12.00
2022-10-13T00:04:58.295Z,12.40
2022-10-13T00:08:59.263Z,12.67
2022-10-13T00:12:59.398Z,12.73
2022-10-13T00:16:59.538Z,12.20
2022-10-13T00:21:02.495Z,11.67
2022-10-13T00:25:02.756Z,10.43
2022-10-13T00:29:02.868Z,11.07
2022-10-13T00:33:03.023Z,10.93
2022-10-13T00:37:05.973Z,11.43
2022-10-13T00:41:06.724Z,10.43
2022-10-13T00:45:25.269Z,10.13
2022-10-13T00:49:25.432Z,10.20
2022-10-13T00:53:35.706Z,10.17
2022-10-13T00:57:36.569Z,10.53
2022-10-13T01:01:38.059Z,10.67
2022-10-13T01:05:39.091Z,10.27
2022-10-13T01:09:42.572Z,10.73
2022-10-13T01:13:53.148Z,10.93
2022-10-13T01:18:06.546Z,10.03
2022-10-13T01:22:23.638Z,10.67
2022-10-13T01:27:04.072Z,11.10
2022-10-13T01:31:16.372Z,11.87
2022-10-13T01:35:23.609Z,12.53
2022-10-13T01:39:40.989Z,12.67
2022-10-13T01:43:48.928Z,13.63
2022-10-13T01:47:55.223Z,13.43
2022-10-13T01:51:57.799Z,13.33
2022-10-13T01:56:00.793Z,14.60
2022-10-13T02:00:04.019Z,15.20
2022-10-13T02:04:32.013Z,14.33
2022-10-13T02:08:43.079Z,16.07
2022-10-13T02:12:52.481Z,17.07
2022-10-13T02:16:56.005Z,15.13
2022-10-13T02:20:59.464Z,16.90
2022-10-13T02:24:59.977Z,16.43
2022-10-13T02:29:00.756Z,17.20
2022-10-13T02:33:00.896Z,16.97
2022-10-13T02:37:06.745Z,16.87
2022-10-13T02:41:06.971Z,17.53
2022-10-13T02:45:08.877Z,18.03
2022-10-13T02:49:09.034Z,18.40
2022-10-13T02:53:11.836Z,18.30
2022-10-13T02:57:11.973Z,17.73
2022-10-13T03:01:15.069Z,16.03
2022-10-13T03:05:15.298Z,17.57
2022-10-13T03:09:18.158Z,17.57
2022-10-13T03:13:18.343Z,16.73
2022-10-13T03:17:18.666Z,16.43
2022-10-13T03:21:18.825Z,16.67
2022-10-13T03:25:21.575Z,17.10
2022-10-13T03:29:25.456Z,18.20
2022-10-13T03:33:25.545Z,16.60
2022-10-13T03:37:33.107Z,17.77
2022-10-13T03:41:36.117Z,20.30
2022-10-13T03:45:36.229Z,20.93
2022-10-13T03:49:36.800Z,21.23
2022-10-13T03:53:37.569Z,22.80
2022-10-13T03:57:40.354Z,21.57
2022-10-13T04:01:40.661Z,22.67
2022-10-13T04:05:40.889Z,20.67
2022-10-13T04:09:41.100Z,23.33
2022-10-13T04:13:45.417Z,21.37
2022-10-13T04:17:45.709Z,23.73
2022-10-13T04:21:46.696Z,20.30
2022-10-13T04:25:46.927Z,22.77
2022-10-13T04:29:49.928Z,20.17
2022-10-13T04:33:50.358Z,22.40
2022-10-13T04:37:50.544Z,20.10
2022-10-13T04:41:50.801Z,21.17
2022-10-13T04:45:53.547Z,22.97
2022-10-13T04:49:53.660Z,22.73
2022-10-13T04:53:58.585Z,23.87
2022-10-13T04:57:58.758Z,22.40
2022-10-13T05:02:03.335Z,22.80
2022-10-13T05:06:04.294Z,23.70
2022-10-13T05:10:04.542Z,23.37
2022-10-13T05:14:05.025Z,25.63
2022-10-13T05:18:07.853Z,24.67
2022-10-13T05:22:08.034Z,25.93
2022-10-13T05:26:11.457Z,23.97
2022-10-13T05:30:13.909Z,24.20
2022-10-13T05:34:16.797Z,26.17
2022-10-13T05:38:16.921Z,23.53
2022-10-13T05:42:17.369Z,26.37
2022-10-13T05:46:18.526Z,25.10
2022-10-13T05:50:21.368Z,24.83
2022-10-13T05:54:26.724Z,22.77
2022-10-13T05:58:27.733Z,23.63
2022-10-13T06:02:37.850Z,23.37
2022-10-13T06:06:40.925Z,23.73
2022-10-13T06:17:17.118Z,23.50
2022-10-13T06:21:18.273Z,25.83
2022-10-13T06:25:21.054Z,26.00
2022-10-13T06:29:21.230Z,25.93
2022-10-13T06:33:21.325Z,23.27
2022-10-13T06:37:26.952Z,22.20
2022-10-13T06:41:30.170Z,22.17
2022-10-13T06:45:30.376Z,23.90
2022-10-13T06:49:30.537Z,24.93
2022-10-13T06:53:30.990Z,24.43
2022-10-13T06:57:33.763Z,22.30
2022-10-13T07:01:41.593Z,31.93
2022-10-13T07:05:45.640Z,24.10
2022-10-13T07:09:45.911Z,23.13
2022-10-13T07:13:51.987Z,22.80
2022-10-13T07:17:56.172Z,23.30
2022-10-13T07:21:57.726Z,23.57
2022-10-13T07:25:59.527Z,24.60
2022-10-13T07:30:23.315Z,24.00
2022-10-13T07:34:35.832Z,24.00
2022-10-13T07:39:05.261Z,24.27
2022-10-13T07:43:09.631Z,24.70
2022-10-13T07:47:14.952Z,23.93
2022-10-13T07:51:22.090Z,23.83
2022-10-13T07:55:30.178Z,23.83
2022-10-13T07:59:36.811Z,22.90
2022-10-13T08:03:50.908Z,22.23
2022-10-13T08:08:21.190Z,22.87
2022-10-13T08:13:03.663Z,24.10
2022-10-13T08:17:05.379Z,23.20
2022-10-13T08:26:03.794Z,21.45
2022-10-13T08:30:06.359Z,21.67
2022-10-13T08:34:07.841Z,21.75
2022-10-13T08:38:10.911Z,21.67
2022-10-13T08:42:19.143Z,22.08
2022-10-13T08:46:28.430Z,22.35
2022-10-13T08:50:33.225Z,21.48
2022-10-13T08:54:41.968Z,22.27
2022-10-13T08:58:48.249Z,22.30
2022-10-13T09:02:53.717Z,20.67
2022-10-13T09:07:02.571Z,21.42
2022-10-13T09:11:19.112Z,21.02
2022-10-13T09:15:24.426Z,19.63
2022-10-13T09:19:34.189Z,21.08
2022-10-13T09:23:38.214Z,20.15
2022-10-13T09:28:08.096Z,20.17
2022-10-13T09:32:31.104Z,19.65
2022-10-13T09:36:32.797Z,20.55
2022-10-13T09:40:33.666Z,19.45
2022-10-13T09:44:39.991Z,18.15
2022-10-13T09:48:50.729Z,18.02
2022-10-13T09:52:52.290Z,17.92
2022-10-13T09:57:02.248Z,16.55
2022-10-13T10:01:09.062Z,16.80
2022-10-13T10:05:26.514Z,17.33
2022-10-13T10:09:42.002Z,16.70
2022-10-13T10:13:43.426Z,17.40
2022-10-13T10:17:56.704Z,18.38
2022-10-13T10:22:10.467Z,15.60
2022-10-13T10:26:24.252Z,15.15
2022-10-13T10:30:27.819Z,16.48
2022-10-13T10:34:58.346Z,15.65
2022-10-13T10:39:11.207Z,14.93
2022-10-13T10:43:47.139Z,15.88
2022-10-13T10:47:55.691Z,14.07
2022-10-13T10:52:02.158Z,14.13
2022-10-13T10:56:17.022Z,14.13
2022-10-13T11:00:22.427Z,12.65
2022-10-13T11:04:41.836Z,12.05
2022-10-13T11:08:57.057Z,12.65
2022-10-13T11:13:30.989Z,11.82
2022-10-13T11:23:18.063Z,12.15
2022-10-13T11:27:48.926Z,12.63
2022-10-13T11:32:03.339Z,12.73
2022-10-13T11:36:59.097Z,12.27
2022-10-13T11:41:55.673Z,13.93
2022-10-13T11:46:30.700Z,10.85
2022-10-13T11:50:50.965Z,10.57
2022-10-13T11:55:19.433Z,11.85
2022-10-13T11:59:54.595Z,11.18
2022-10-13T12:04:15.465Z,11.18
2022-10-13T12:08:53.225Z,11.80
2022-10-13T12:13:33.647Z,10.43
2022-10-13T12:17:52.588Z,11.55
2022-10-13T12:22:09.564Z,10.85
2022-10-13T12:26:56.853Z,12.13
2022-10-13T12:31:11.596Z,12.43
2022-10-13T12:35:34.950Z,11.00
2022-10-13T12:40:24.773Z,11.60
2022-10-13T12:44:34.583Z,11.88
2022-10-13T12:48:38.497Z,11.48
2022-10-13T12:52:40.909Z,11.50
2022-10-13T12:56:46.257Z,12.15
2022-10-13T13:00:46.466Z,11.55
2022-10-13T13:04:47.298Z,12.32
2022-10-13T13:08:47.494Z,12.13
2022-10-13T13:12:53.162Z,11.77
2022-10-13T13:17:07.642Z,12.07
2022-10-13T13:21:09.839Z,13.15
2022-10-13T13:25:14.113Z,13.02
2022-10-13T13:29:17.116Z,11.82
2022-10-13T13:33:17.320Z,12.77
2022-10-13T13:37:27.441Z,11.77
2022-10-13T13:41:31.075Z,11.88
2022-10-13T13:45:37.439Z,12.05
2022-10-13T13:49:40.306Z,10.57
2022-10-13T13:53:40.692Z,10.50
2022-10-13T13:57:46.721Z,10.38
2022-10-13T14:01:52.523Z,10.30
2022-10-13T14:05:58.443Z,10.18
2022-10-13T14:10:01.960Z,11.27
2022-10-13T14:14:08.935Z,10.70
2022-10-13T14:18:13.503Z,9.85
2022-10-13T14:22:13.592Z,10.55
2022-10-13T14:26:13.798Z,9.85
2022-10-13T14:30:16.283Z,10.05
2022-10-13T14:34:19.101Z,9.88
2022-10-13T14:38:19.233Z,9.88
2022-10-13T14:42:21.343Z,8.70
2022-10-13T14:46:21.618Z,9.50
2022-10-13T14:50:24.433Z,9.85
2022-10-13T14:54:29.244Z,9.70
2022-10-13T14:58:29.382Z,9.88
2022-10-13T15:02:29.792Z,10.13
2022-10-13T15:06:32.752Z,9.38
2022-10-13T15:10:33.602Z,9.55
2022-10-13T15:14:34.485Z,9.60
2022-10-13T15:18:36.184Z,9.40
2022-10-13T15:22:39.055Z,9.20
2022-10-13T15:26:42.462Z,10.30
2022-10-13T15:30:42.770Z,8.90
2022-10-13T15:34:43.254Z,10.82
2022-10-13T15:38:46.153Z,9.50
2022-10-13T15:42:46.241Z,10.73
2022-10-13T15:47:06.693Z,12.82
2022-10-13T15:51:17.109Z,13.95
2022-10-13T15:55:20.833Z,21.50
2022-10-13T15:59:21.170Z,17.17
2022-10-13T16:03:21.914Z,22.70
2022-10-13T16:07:22.755Z,12.15
2022-10-13T16:11:27.683Z,26.85
2022-10-13T16:15:29.218Z,29.20
2022-10-13T16:19:29.518Z,34.42
2022-10-13T16:23:29.807Z,15.13
2022-10-13T16:27:32.651Z,14.15
2022-10-13T16:31:33.319Z,15.65
2022-10-13T16:35:34.373Z,17.35
2022-10-13T16:39:36.533Z,13.13
2022-10-13T16:43:43.209Z,18.60
2022-10-13T16:47:43.307Z,14.97
2022-10-13T16:51:43.594Z,12.73
2022-10-13T16:55:43.820Z,18.53
2022-10-13T16:59:48.461Z,32.70
2022-10-13T17:03:50.356Z,48.53
2022-10-13T17:07:50.495Z,30.40
2022-10-13T17:11:50.775Z,23.53
2022-10-13T17:15:59.246Z,32.67
2022-10-13T17:19:59.502Z,27.87
2022-10-13T17:23:59.781Z,25.10
2022-10-13T17:27:59.940Z,34.90
2022-10-13T17:32:02.778Z,19.43
2022-10-13T17:36:04.605Z,17.90
2022-10-13T17:40:04.877Z,14.00
2022-10-13T17:44:05.440Z,12.27
2022-10-13T17:48:08.522Z,17.07
2022-10-13T17:52:09.279Z,16.63
2022-10-13T17:56:13.529Z,12.60
2022-10-13T18:00:16.457Z,13.00
2022-10-13T18:04:22.455Z,14.40
2022-10-13T18:08:22.792Z,17.83
2022-10-13T18:12:23.496Z,16.27
2022-10-13T18:16:26.394Z,17.33
2022-10-13T18:20:29.124Z,15.47
2022-10-13T18:24:29.287Z,21.30
2022-10-13T18:28:33.388Z,24.67
2022-10-13T18:32:33.829Z,23.33
2022-10-13T18:36:39.032Z,22.63
2022-10-13T18:40:41.637Z,22.67
2022-10-13T18:44:41.821Z,21.37
2022-10-13T18:48:42.294Z,19.53
2022-10-13T18:52:45.067Z,21.63
2022-10-13T18:56:45.379Z,29.50
2022-10-13T19:00:45.635Z,27.73
2022-10-13T19:04:45.782Z,29.97
2022-10-13T19:08:49.736Z,26.03
2022-10-13T19:12:50.082Z,22.63
2022-10-13T19:16:55.235Z,21.77
2022-10-13T19:21:01.612Z,20.30
2022-10-13T19:25:04.457Z,19.70
2022-10-13T19:29:08.748Z,18.80
2022-10-13T19:33:11.324Z,32.23
2022-10-13T19:37:20.467Z,23.50
2022-10-13T19:41:23.984Z,21.60
2022-10-13T19:45:24.198Z,19.00
2022-10-13T19:49:27.446Z,21.90
2022-10-13T19:53:29.701Z,22.37
2022-10-13T19:57:32.489Z,22.83
2022-10-13T20:01:32.957Z,29.33
2022-10-13T20:05:33.715Z,22.60
2022-10-13T20:09:33.923Z,21.63
2022-10-13T20:13:36.817Z,34.90
2022-10-13T20:17:37.036Z,26.10
2022-10-13T20:21:37.333Z,22.13
2022-10-13T20:25:40.008Z,26.90
2022-10-13T20:29:42.883Z,22.63
2022-10-13T20:33:43.863Z,18.80
2022-10-13T20:37:44.033Z,18.23
2022-10-13T20:41:44.319Z,19.83
2022-10-13T20:45:48.955Z,22.83
2022-10-13T20:49:49.072Z,20.67
2022-10-13T20:53:51.227Z,19.20
2022-10-13T20:57:54.299Z,18.77
2022-10-13T21:01:57.118Z,20.03
2022-10-13T21:05:59.180Z,22.00
2022-10-13T21:09:59.285Z,20.37
2022-10-13T21:14:00.177Z,18.73
2022-10-13T21:18:02.971Z,21.83
2022-10-13T21:22:03.060Z,22.20
2022-10-13T21:26:05.463Z,24.90
2022-10-13T21:30:06.294Z,23.77
2022-10-13T21:34:09.099Z,22.90
2022-10-13T21:38:09.218Z,22.60
2022-10-13T21:42:10.427Z,23.70
2022-10-13T21:46:15.840Z,22.23
2022-10-13T21:50:18.849Z,22.77
2022-10-13T21:54:19.584Z,21.70
2022-10-13T21:58:19.731Z,23.70
2022-10-13T22:02:19.948Z,21.07
2022-10-13T22:06:23.426Z,20.77
2022-10-13T22:10:23.631Z,21.03
2022-10-13T22:14:25.175Z,21.07
2022-10-13T22:18:28.290Z,21.00
2022-10-13T22:22:31.251Z,21.80
2022-10-13T22:26:34.640Z,21.27
2022-10-13T22:30:34.804Z,19.73
2022-10-13T22:34:37.048Z,21.03
2022-10-13T22:38:40.033Z,19.37
2022-10-13T22:42:40.172Z,18.33
2022-10-13T22:46:42.549Z,17.23
2022-10-13T22:50:46.643Z,19.00
2022-10-13T22:54:49.433Z,19.40
2022-10-13T22:58:53.386Z,19.47
2022-10-13T23:02:53.620Z,17.70
2022-10-13T23:06:53.814Z,19.10
2022-10-13T23:10:57.409Z,17.17
2022-10-13T23:14:57.607Z,18.90
2022-10-13T23:18:58.429Z,17.33
2022-10-13T23:22:58.526Z,18.40
2022-10-13T23:27:01.467Z,18.20
2022-10-13T23:31:03.461Z,16.73
2022-10-13T23:35:03.705Z,16.63
2022-10-13T23:39:10.275Z,18.17
2022-10-13T23:43:13.141Z,16.43
2022-10-13T23:47:14.849Z,16.83
2022-10-13T23:51:19.328Z,14.93
2022-10-13T23:55:19.552Z,14.73
2022-10-13T23:59:22.245Z,16.40
